sensor_id;sensor_type;location;lat;lon;timestamp;P1;durP1;ratioP1;P2;durP2;ratioP2
70558;SDS011;58108;48.094;11.838;2022-12-07T00:01:12;10.05;;;4.05;;
70558;SDS011;58108;48.094;11.838;2022-12-07T00:03:38;10.63;;;4.43;;
70558;SDS011;58108;48.094;11.838;2022-12-07T00:06:05;7.65;;;3.10;;
70558;SDS011;58108;48.094;11.838;2022-12-07T00:08:32;12.18;;;4.40;;
70558;SDS011;58108;48.094;11.838;2022-12-07T00:11:02;11.95;;;4.03;;
70558;SDS011;58108;48.094;11.838;2022-12-07T00:13:29;11.60;;;4.32;;
70558;SDS011;58108;48.094;11.838;2022-12-07T00:15:55;14.93;;;4.70;;
70558;SDS011;58108;48.094;11.838;2022-12-07T00:18:20;14.25;;;5.53;;
70558;SDS011;58108;48.094;11.838;2022-12-07T00:20:45;13.27;;;4.90;;
70558;SDS011;58108;48.094;11.838;2022-12-07T00:23:11;11.93;;;4.10;;
70558;SDS011;58108;48.094;11.838;2022-12-07T00:25:36;14.30;;;5.20;;
70558;SDS011;58108;48.094;11.838;2022-12-07T00:28:01;11.13;;;4.17;;
70558;SDS011;58108;48.094;11.838;2022-12-07T00:30:27;11.37;;;3.90;;
70558;SDS011;58108;48.094;11.838;2022-12-07T00:32:52;10.90;;;4.97;;
70558;SDS011;58108;48.094;11.838;2022-12-07T00:35:17;13.47;;;5.37;;
70558;SDS011;58108;48.094;11.838;2022-12-07T00:37:43;11.10;;;4.37;;
70558;SDS011;58108;48.094;11.838;2022-12-07T00:40:08;8.57;;;3.13;;
70558;SDS011;58108;48.094;11.838;2022-12-07T00:42:34;13.50;;;4.80;;
70558;SDS011;58108;48.094;11.838;2022-12-07T00:44:59;12.87;;;4.87;;
70558;SDS011;58108;48.094;11.838;2022-12-07T00:47:24;11.97;;;4.60;;
70558;SDS011;58108;48.094;11.838;2022-12-07T00:49:50;13.30;;;5.33;;
70558;SDS011;58108;48.094;11.838;2022-12-07T00:52:15;12.47;;;4.10;;
70558;SDS011;58108;48.094;11.838;2022-12-07T00:54:40;11.13;;;4.47;;
70558;SDS011;58108;48.094;11.838;2022-12-07T00:57:06;13.53;;;4.80;;
70558;SDS011;58108;48.094;11.838;2022-12-07T00:59:31;11.13;;;4.40;;
70558;SDS011;58108;48.094;11.838;2022-12-07T01:01:56;12.07;;;4.70;;
70558;SDS011;58108;48.094;11.838;2022-12-07T01:04:21;7.13;;;2.43;;
70558;SDS011;58108;48.094;11.838;2022-12-07T01:06:47;11.85;;;4.43;;
70558;SDS011;58108;48.094;11.838;2022-12-07T01:09:12;11.98;;;4.35;;
70558;SDS011;58108;48.094;11.838;2022-12-07T01:11:37;4.57;;;1.70;;
70558;SDS011;58108;48.094;11.838;2022-12-07T01:14:03;11.30;;;4.33;;
70558;SDS011;58108;48.094;11.838;2022-12-07T01:16:29;13.40;;;5.23;;
70558;SDS011;58108;48.094;11.838;2022-12-07T01:18:56;11.70;;;4.27;;
70558;SDS011;58108;48.094;11.838;2022-12-07T01:21:24;10.40;;;3.58;;
70558;SDS011;58108;48.094;11.838;2022-12-07T01:23:54;11.15;;;4.43;;
70558;SDS011;58108;48.094;11.838;2022-12-07T01:26:20;14.63;;;4.90;;
70558;SDS011;58108;48.094;11.838;2022-12-07T01:28:47;11.50;;;3.78;;
70558;SDS011;58108;48.094;11.838;2022-12-07T01:31:14;8.13;;;3.05;;
70558;SDS011;58108;48.094;11.838;2022-12-07T01:33:45;12.73;;;4.70;;
70558;SDS011;58108;48.094;11.838;2022-12-07T01:36:13;11.83;;;4.33;;
70558;SDS011;58108;48.094;11.838;2022-12-07T01:38:39;10.10;;;4.13;;
70558;SDS011;58108;48.094;11.838;2022-12-07T01:41:05;11.07;;;4.28;;
70558;SDS011;58108;48.094;11.838;2022-12-07T01:43:31;11.27;;;4.53;;
70558;SDS011;58108;48.094;11.838;2022-12-07T01:45:58;10.05;;;4.03;;
70558;SDS011;58108;48.094;11.838;2022-12-07T01:48:38;11.40;;;4.30;;
70558;SDS011;58108;48.094;11.838;2022-12-07T01:51:09;10.40;;;3.65;;
70558;SDS011;58108;48.094;11.838;2022-12-07T01:53:39;10.37;;;3.70;;
70558;SDS011;58108;48.094;11.838;2022-12-07T01:56:10;10.73;;;4.03;;
70558;SDS011;58108;48.094;11.838;2022-12-07T01:58:40;12.85;;;4.50;;
70558;SDS011;58108;48.094;11.838;2022-12-07T02:01:06;11.03;;;4.13;;
70558;SDS011;58108;48.094;11.838;2022-12-07T02:03:32;10.80;;;4.20;;
70558;SDS011;58108;48.094;11.838;2022-12-07T02:06:00;10.43;;;4.05;;
70558;SDS011;58108;48.094;11.838;2022-12-07T02:08:26;13.50;;;5.07;;
70558;SDS011;58108;48.094;11.838;2022-12-07T02:10:52;13.45;;;4.63;;
70558;SDS011;58108;48.094;11.838;2022-12-07T02:13:19;11.73;;;4.80;;
70558;SDS011;58108;48.094;11.838;2022-12-07T02:24:31;11.70;;;4.40;;
70558;SDS011;58108;48.094;11.838;2022-12-07T02:38:14;11.52;;;4.63;;
70558;SDS011;58108;48.094;11.838;2022-12-07T02:40:48;12.90;;;4.72;;
70558;SDS011;58108;48.094;11.838;2022-12-07T02:43:25;13.30;;;4.93;;
70558;SDS011;58108;48.094;11.838;2022-12-07T02:45:56;12.98;;;4.80;;
70558;SDS011;58108;48.094;11.838;2022-12-07T02:48:26;13.80;;;4.97;;
70558;SDS011;58108;48.094;11.838;2022-12-07T02:50:53;10.75;;;4.45;;
70558;SDS011;58108;48.094;11.838;2022-12-07T02:56:43;12.48;;;4.60;;
70558;SDS011;58108;48.094;11.838;2022-12-07T03:15:16;20.10;;;6.43;;
70558;SDS011;58108;48.094;11.838;2022-12-07T03:17:46;18.40;;;5.70;;
70558;SDS011;58108;48.094;11.838;2022-12-07T03:20:14;15.80;;;5.95;;
70558;SDS011;58108;48.094;11.838;2022-12-07T03:22:44;16.88;;;6.10;;
70558;SDS011;58108;48.094;11.838;2022-12-07T03:25:13;16.15;;;5.70;;
70558;SDS011;58108;48.094;11.838;2022-12-07T03:27:49;15.40;;;5.90;;
70558;SDS011;58108;48.094;11.838;2022-12-07T03:30:22;13.90;;;5.30;;
70558;SDS011;58108;48.094;11.838;2022-12-07T03:32:50;14.60;;;5.35;;
70558;SDS011;58108;48.094;11.838;2022-12-07T03:35:29;11.68;;;4.53;;
70558;SDS011;58108;48.094;11.838;2022-12-07T03:37:59;13.00;;;5.10;;
70558;SDS011;58108;48.094;11.838;2022-12-07T03:40:35;12.68;;;5.10;;
70558;SDS011;58108;48.094;11.838;2022-12-07T03:43:05;13.80;;;5.10;;
70558;SDS011;58108;48.094;11.838;2022-12-07T03:53:31;14.18;;;5.18;;
70558;SDS011;58108;48.094;11.838;2022-12-07T03:56:02;14.00;;;5.10;;
70558;SDS011;58108;48.094;11.838;2022-12-07T03:58:28;15.75;;;5.30;;
70558;SDS011;58108;48.094;11.838;2022-12-07T04:00:56;14.15;;;5.60;;
70558;SDS011;58108;48.094;11.838;2022-12-07T04:03:21;13.60;;;5.50;;
70558;SDS011;58108;48.094;11.838;2022-12-07T04:05:46;13.03;;;5.00;;
70558;SDS011;58108;48.094;11.838;2022-12-07T04:08:12;13.88;;;5.53;;
70558;SDS011;58108;48.094;11.838;2022-12-07T04:10:37;14.63;;;5.80;;
70558;SDS011;58108;48.094;11.838;2022-12-07T04:13:02;16.07;;;5.73;;
70558;SDS011;58108;48.094;11.838;2022-12-07T04:15:28;15.23;;;5.87;;
70558;SDS011;58108;48.094;11.838;2022-12-07T04:17:53;10.90;;;4.50;;
70558;SDS011;58108;48.094;11.838;2022-12-07T04:20:20;15.10;;;5.45;;
70558;SDS011;58108;48.094;11.838;2022-12-07T04:22:45;13.53;;;5.30;;
70558;SDS011;58108;48.094;11.838;2022-12-07T04:25:10;13.93;;;5.07;;
70558;SDS011;58108;48.094;11.838;2022-12-07T04:27:36;15.33;;;5.80;;
70558;SDS011;58108;48.094;11.838;2022-12-07T04:30:01;15.63;;;5.80;;
70558;SDS011;58108;48.094;11.838;2022-12-07T04:32:27;14.82;;;5.35;;
70558;SDS011;58108;48.094;11.838;2022-12-07T04:34:52;14.60;;;5.90;;
70558;SDS011;58108;48.094;11.838;2022-12-07T04:37:18;13.73;;;5.75;;
70558;SDS011;58108;48.094;11.838;2022-12-07T04:39:43;16.23;;;5.77;;
70558;SDS011;58108;48.094;11.838;2022-12-07T04:42:09;14.13;;;5.27;;
70558;SDS011;58108;48.094;11.838;2022-12-07T04:44:35;14.10;;;5.25;;
70558;SDS011;58108;48.094;11.838;2022-12-07T04:47:01;13.70;;;5.10;;
70558;SDS011;58108;48.094;11.838;2022-12-07T04:49:26;13.90;;;5.50;;
70558;SDS011;58108;48.094;11.838;2022-12-07T04:51:51;15.98;;;5.60;;
70558;SDS011;58108;48.094;11.838;2022-12-07T04:54:17;11.47;;;4.63;;
70558;SDS011;58108;48.094;11.838;2022-12-07T04:56:43;13.82;;;5.13;;
70558;SDS011;58108;48.094;11.838;2022-12-07T04:59:09;13.10;;;5.20;;
70558;SDS011;58108;48.094;11.838;2022-12-07T05:01:36;13.75;;;5.55;;
70558;SDS011;58108;48.094;11.838;2022-12-07T05:04:01;14.70;;;5.50;;
70558;SDS011;58108;48.094;11.838;2022-12-07T05:06:27;13.43;;;5.90;;
70558;SDS011;58108;48.094;11.838;2022-12-07T05:08:53;15.23;;;6.10;;
70558;SDS011;58108;48.094;11.838;2022-12-07T05:11:18;18.98;;;6.82;;
70558;SDS011;58108;48.094;11.838;2022-12-07T05:14:03;14.25;;;5.38;;
70558;SDS011;58108;48.094;11.838;2022-12-07T05:16:38;16.42;;;6.32;;
70558;SDS011;58108;48.094;11.838;2022-12-07T05:19:04;17.63;;;6.70;;
70558;SDS011;58108;48.094;11.838;2022-12-07T05:21:30;15.07;;;5.50;;
70558;SDS011;58108;48.094;11.838;2022-12-07T05:23:56;14.97;;;5.87;;
70558;SDS011;58108;48.094;11.838;2022-12-07T05:26:22;15.07;;;5.70;;
70558;SDS011;58108;48.094;11.838;2022-12-07T05:28:51;13.85;;;5.82;;
70558;SDS011;58108;48.094;11.838;2022-12-07T05:31:20;14.77;;;5.73;;
70558;SDS011;58108;48.094;11.838;2022-12-07T05:33:45;14.55;;;5.70;;
70558;SDS011;58108;48.094;11.838;2022-12-07T05:36:11;5.07;;;2.00;;
70558;SDS011;58108;48.094;11.838;2022-12-07T05:38:36;14.47;;;5.73;;
70558;SDS011;58108;48.094;11.838;2022-12-07T05:41:02;15.33;;;6.00;;
70558;SDS011;58108;48.094;11.838;2022-12-07T05:43:29;15.85;;;5.85;;
70558;SDS011;58108;48.094;11.838;2022-12-07T05:45:54;13.45;;;4.97;;
70558;SDS011;58108;48.094;11.838;2022-12-07T05:48:20;15.57;;;5.83;;
70558;SDS011;58108;48.094;11.838;2022-12-07T05:50:47;16.20;;;6.00;;
70558;SDS011;58108;48.094;11.838;2022-12-07T05:53:13;18.65;;;6.70;;
70558;SDS011;58108;48.094;11.838;2022-12-07T05:55:39;15.83;;;6.27;;
70558;SDS011;58108;48.094;11.838;2022-12-07T05:58:04;19.07;;;7.27;;
70558;SDS011;58108;48.094;11.838;2022-12-07T06:00:48;17.45;;;6.53;;
70558;SDS011;58108;48.094;11.838;2022-12-07T06:03:14;18.30;;;7.03;;
70558;SDS011;58108;48.094;11.838;2022-12-07T06:05:39;19.87;;;6.93;;
70558;SDS011;58108;48.094;11.838;2022-12-07T06:08:04;16.77;;;6.70;;
70558;SDS011;58108;48.094;11.838;2022-12-07T06:10:29;16.07;;;6.87;;
70558;SDS011;58108;48.094;11.838;2022-12-07T06:12:55;16.83;;;6.97;;
70558;SDS011;58108;48.094;11.838;2022-12-07T06:15:20;12.63;;;5.57;;
70558;SDS011;58108;48.094;11.838;2022-12-07T06:17:47;19.15;;;7.60;;
70558;SDS011;58108;48.094;11.838;2022-12-07T06:20:13;17.47;;;7.37;;
70558;SDS011;58108;48.094;11.838;2022-12-07T06:22:38;19.27;;;7.20;;
70558;SDS011;58108;48.094;11.838;2022-12-07T06:25:03;17.00;;;7.03;;
70558;SDS011;58108;48.094;11.838;2022-12-07T06:27:29;15.47;;;5.87;;
70558;SDS011;58108;48.094;11.838;2022-12-07T06:29:54;19.53;;;7.83;;
70558;SDS011;58108;48.094;11.838;2022-12-07T06:32:20;18.97;;;7.47;;
70558;SDS011;58108;48.094;11.838;2022-12-07T06:34:45;20.60;;;7.27;;
70558;SDS011;58108;48.094;11.838;2022-12-07T06:37:12;21.40;;;7.20;;
70558;SDS011;58108;48.094;11.838;2022-12-07T06:39:37;19.87;;;7.30;;
70558;SDS011;58108;48.094;11.838;2022-12-07T06:42:03;19.40;;;7.38;;
70558;SDS011;58108;48.094;11.838;2022-12-07T06:44:29;16.53;;;6.50;;
70558;SDS011;58108;48.094;11.838;2022-12-07T06:46:55;20.23;;;6.63;;
70558;SDS011;58108;48.094;11.838;2022-12-07T06:49:21;19.80;;;6.82;;
70558;SDS011;58108;48.094;11.838;2022-12-07T06:51:46;16.40;;;6.07;;
70558;SDS011;58108;48.094;11.838;2022-12-07T06:54:12;20.73;;;6.67;;
70558;SDS011;58108;48.094;11.838;2022-12-07T06:56:39;17.90;;;7.32;;
70558;SDS011;58108;48.094;11.838;2022-12-07T06:59:05;20.30;;;7.77;;
70558;SDS011;58108;48.094;11.838;2022-12-07T07:01:31;16.90;;;6.03;;
70558;SDS011;58108;48.094;11.838;2022-12-07T07:03:58;17.15;;;6.68;;
70558;SDS011;58108;48.094;11.838;2022-12-07T07:06:23;13.90;;;5.97;;
70558;SDS011;58108;48.094;11.838;2022-12-07T07:08:49;14.77;;;6.00;;
70558;SDS011;58108;48.094;11.838;2022-12-07T07:11:14;18.13;;;6.30;;
70558;SDS011;58108;48.094;11.838;2022-12-07T07:13:39;16.03;;;6.23;;
70558;SDS011;58108;48.094;11.838;2022-12-07T07:16:05;15.50;;;5.90;;
70558;SDS011;58108;48.094;11.838;2022-12-07T07:18:31;15.13;;;5.65;;
70558;SDS011;58108;48.094;11.838;2022-12-07T07:20:56;17.87;;;7.07;;
70558;SDS011;58108;48.094;11.838;2022-12-07T07:23:22;14.10;;;5.73;;
70558;SDS011;58108;48.094;11.838;2022-12-07T07:25:47;16.40;;;5.70;;
70558;SDS011;58108;48.094;11.838;2022-12-07T07:28:13;14.07;;;5.25;;
70558;SDS011;58108;48.094;11.838;2022-12-07T07:30:39;18.33;;;7.15;;
70558;SDS011;58108;48.094;11.838;2022-12-07T07:33:04;15.53;;;6.33;;
70558;SDS011;58108;48.094;11.838;2022-12-07T07:35:31;17.73;;;6.13;;
70558;SDS011;58108;48.094;11.838;2022-12-07T07:37:57;13.38;;;4.55;;
70558;SDS011;58108;48.094;11.838;2022-12-07T07:40:23;12.77;;;3.50;;
70558;SDS011;58108;48.094;11.838;2022-12-07T07:42:52;8.38;;;3.78;;
70558;SDS011;58108;48.094;11.838;2022-12-07T07:45:19;14.75;;;5.43;;
70558;SDS011;58108;48.094;11.838;2022-12-07T07:47:46;15.50;;;5.80;;
70558;SDS011;58108;48.094;11.838;2022-12-07T07:50:12;15.80;;;5.30;;
70558;SDS011;58108;48.094;11.838;2022-12-07T07:52:37;15.77;;;5.65;;
70558;SDS011;58108;48.094;11.838;2022-12-07T07:55:03;18.20;;;6.83;;
70558;SDS011;58108;48.094;11.838;2022-12-07T07:57:28;17.60;;;6.53;;
70558;SDS011;58108;48.094;11.838;2022-12-07T07:59:54;13.25;;;5.07;;
70558;SDS011;58108;48.094;11.838;2022-12-07T08:02:19;16.92;;;6.38;;
70558;SDS011;58108;48.094;11.838;2022-12-07T08:04:46;17.90;;;6.00;;
70558;SDS011;58108;48.094;11.838;2022-12-07T08:07:13;10.05;;;3.15;;
70558;SDS011;58108;48.094;11.838;2022-12-07T08:09:39;8.10;;;3.45;;
70558;SDS011;58108;48.094;11.838;2022-12-07T08:12:05;17.23;;;6.90;;
70558;SDS011;58108;48.094;11.838;2022-12-07T08:14:31;11.10;;;3.92;;
70558;SDS011;58108;48.094;11.838;2022-12-07T08:16:56;14.23;;;4.80;;
70558;SDS011;58108;48.094;11.838;2022-12-07T08:19:22;12.50;;;4.70;;
70558;SDS011;58108;48.094;11.838;2022-12-07T08:21:47;15.82;;;5.82;;
70558;SDS011;58108;48.094;11.838;2022-12-07T08:24:12;17.27;;;6.33;;
70558;SDS011;58108;48.094;11.838;2022-12-07T08:26:38;11.93;;;5.33;;
70558;SDS011;58108;48.094;11.838;2022-12-07T08:29:03;14.70;;;5.07;;
70558;SDS011;58108;48.094;11.838;2022-12-07T08:31:29;12.93;;;5.87;;
70558;SDS011;58108;48.094;11.838;2022-12-07T08:33:54;11.33;;;3.90;;
70558;SDS011;58108;48.094;11.838;2022-12-07T08:36:20;8.93;;;2.63;;
70558;SDS011;58108;48.094;11.838;2022-12-07T08:38:49;15.23;;;6.00;;
70558;SDS011;58108;48.094;11.838;2022-12-07T08:41:15;12.00;;;5.53;;
70558;SDS011;58108;48.094;11.838;2022-12-07T08:43:41;16.13;;;6.60;;
70558;SDS011;58108;48.094;11.838;2022-12-07T08:46:08;17.05;;;5.75;;
70558;SDS011;58108;48.094;11.838;2022-12-07T08:48:44;17.05;;;8.48;;
70558;SDS011;58108;48.094;11.838;2022-12-07T08:51:13;10.90;;;4.50;;
70558;SDS011;58108;48.094;11.838;2022-12-07T08:53:39;11.50;;;5.67;;
70558;SDS011;58108;48.094;11.838;2022-12-07T08:56:05;9.90;;;4.15;;
70558;SDS011;58108;48.094;11.838;2022-12-07T08:58:32;8.60;;;4.40;;
70558;SDS011;58108;48.094;11.838;2022-12-07T09:00:59;9.57;;;3.83;;
70558;SDS011;58108;48.094;11.838;2022-12-07T09:03:24;13.98;;;6.63;;
70558;SDS011;58108;48.094;11.838;2022-12-07T09:05:49;8.33;;;2.63;;
70558;SDS011;58108;48.094;11.838;2022-12-07T09:08:15;10.20;;;4.20;;
70558;SDS011;58108;48.094;11.838;2022-12-07T09:10:40;11.53;;;4.80;;
70558;SDS011;58108;48.094;11.838;2022-12-07T09:13:06;10.77;;;4.13;;
70558;SDS011;58108;48.094;11.838;2022-12-07T09:15:31;9.50;;;3.07;;
70558;SDS011;58108;48.094;11.838;2022-12-07T09:17:56;5.63;;;2.30;;
70558;SDS011;58108;48.094;11.838;2022-12-07T09:20:22;10.45;;;3.58;;
70558;SDS011;58108;48.094;11.838;2022-12-07T09:22:47;9.90;;;3.83;;
70558;SDS011;58108;48.094;11.838;2022-12-07T09:25:13;11.20;;;4.07;;
70558;SDS011;58108;48.094;11.838;2022-12-07T09:27:38;12.57;;;4.33;;
70558;SDS011;58108;48.094;11.838;2022-12-07T09:30:04;9.30;;;3.83;;
70558;SDS011;58108;48.094;11.838;2022-12-07T09:32:30;10.13;;;3.03;;
70558;SDS011;58108;48.094;11.838;2022-12-07T09:34:55;9.40;;;3.38;;
70558;SDS011;58108;48.094;11.838;2022-12-07T09:37:21;9.35;;;3.78;;
70558;SDS011;58108;48.094;11.838;2022-12-07T09:39:46;11.33;;;4.20;;
70558;SDS011;58108;48.094;11.838;2022-12-07T09:42:19;9.80;;;3.03;;
70558;SDS011;58108;48.094;11.838;2022-12-07T09:44:52;14.48;;;4.65;;
70558;SDS011;58108;48.094;11.838;2022-12-07T09:47:17;11.60;;;4.87;;
70558;SDS011;58108;48.094;11.838;2022-12-07T09:49:42;6.37;;;2.33;;
70558;SDS011;58108;48.094;11.838;2022-12-07T09:54:34;11.70;;;4.50;;
70558;SDS011;58108;48.094;11.838;2022-12-07T09:57:03;11.60;;;4.32;;
70558;SDS011;58108;48.094;11.838;2022-12-07T09:59:28;8.70;;;3.73;;
70558;SDS011;58108;48.094;11.838;2022-12-07T10:01:54;8.70;;;3.40;;
70558;SDS011;58108;48.094;11.838;2022-12-07T10:04:21;9.20;;;3.80;;
70558;SDS011;58108;48.094;11.838;2022-12-07T10:06:48;10.75;;;3.85;;
70558;SDS011;58108;48.094;11.838;2022-12-07T10:09:16;9.70;;;4.15;;
70558;SDS011;58108;48.094;11.838;2022-12-07T10:11:59;9.63;;;3.70;;
70558;SDS011;58108;48.094;11.838;2022-12-07T10:14:27;10.47;;;5.00;;
70558;SDS011;58108;48.094;11.838;2022-12-07T10:16:54;11.20;;;4.93;;
70558;SDS011;58108;48.094;11.838;2022-12-07T10:19:22;8.00;;;3.38;;
70558;SDS011;58108;48.094;11.838;2022-12-07T10:22:01;9.60;;;3.83;;
70558;SDS011;58108;48.094;11.838;2022-12-07T10:24:36;8.15;;;3.15;;
70558;SDS011;58108;48.094;11.838;2022-12-07T10:27:04;11.37;;;4.10;;
70558;SDS011;58108;48.094;11.838;2022-12-07T10:29:34;6.50;;;2.85;;
70558;SDS011;58108;48.094;11.838;2022-12-07T10:32:05;9.07;;;3.45;;
70558;SDS011;58108;48.094;11.838;2022-12-07T10:34:49;8.10;;;2.72;;
70558;SDS011;58108;48.094;11.838;2022-12-07T10:40:00;10.67;;;4.47;;
70558;SDS011;58108;48.094;11.838;2022-12-07T10:42:26;8.07;;;3.13;;
70558;SDS011;58108;48.094;11.838;2022-12-07T10:58:31;5.45;;;2.47;;
70558;SDS011;58108;48.094;11.838;2022-12-07T11:01:42;9.77;;;3.88;;
70558;SDS011;58108;48.094;11.838;2022-12-07T11:04:18;4.43;;;1.70;;
70558;SDS011;58108;48.094;11.838;2022-12-07T11:12:14;9.13;;;3.63;;
70558;SDS011;58108;48.094;11.838;2022-12-07T11:17:42;9.10;;;4.18;;
70558;SDS011;58108;48.094;11.838;2022-12-07T11:20:44;7.53;;;3.22;;
70558;SDS011;58108;48.094;11.838;2022-12-07T11:31:26;9.48;;;3.70;;
70558;SDS011;58108;48.094;11.838;2022-12-07T11:34:24;8.75;;;3.60;;
70558;SDS011;58108;48.094;11.838;2022-12-07T11:36:56;8.93;;;4.27;;
70558;SDS011;58108;48.094;11.838;2022-12-07T11:41:48;8.43;;;3.23;;
70558;SDS011;58108;48.094;11.838;2022-12-07T11:52:06;6.93;;;2.22;;
70558;SDS011;58108;48.094;11.838;2022-12-07T11:54:42;7.85;;;2.92;;
70558;SDS011;58108;48.094;11.838;2022-12-07T11:57:33;6.78;;;2.45;;
70558;SDS011;58108;48.094;11.838;2022-12-07T12:00:26;6.50;;;2.33;;
70558;SDS011;58108;48.094;11.838;2022-12-07T12:02:55;7.75;;;3.13;;
70558;SDS011;58108;48.094;11.838;2022-12-07T12:05:27;7.72;;;3.28;;
70558;SDS011;58108;48.094;11.838;2022-12-07T12:08:02;8.57;;;3.15;;
70558;SDS011;58108;48.094;11.838;2022-12-07T12:10:52;8.65;;;3.20;;
70558;SDS011;58108;48.094;11.838;2022-12-07T12:16:07;9.70;;;3.70;;
70558;SDS011;58108;48.094;11.838;2022-12-07T12:18:46;9.25;;;4.28;;
70558;SDS011;58108;48.094;11.838;2022-12-07T12:21:26;8.93;;;3.95;;
70558;SDS011;58108;48.094;11.838;2022-12-07T12:26:26;5.80;;;2.77;;
70558;SDS011;58108;48.094;11.838;2022-12-07T12:29:39;5.70;;;2.30;;
70558;SDS011;58108;48.094;11.838;2022-12-07T12:32:04;6.70;;;2.60;;
70558;SDS011;58108;48.094;11.838;2022-12-07T12:35:17;6.53;;;2.90;;
70558;SDS011;58108;48.094;11.838;2022-12-07T12:37:48;7.80;;;3.60;;
70558;SDS011;58108;48.094;11.838;2022-12-07T12:45:32;7.43;;;3.50;;
70558;SDS011;58108;48.094;11.838;2022-12-07T12:47:58;5.95;;;2.67;;
70558;SDS011;58108;48.094;11.838;2022-12-07T12:50:34;8.63;;;3.42;;
70558;SDS011;58108;48.094;11.838;2022-12-07T12:53:14;5.30;;;2.08;;
70558;SDS011;58108;48.094;11.838;2022-12-07T12:56:10;6.83;;;2.50;;
70558;SDS011;58108;48.094;11.838;2022-12-07T13:01:46;7.90;;;3.63;;
70558;SDS011;58108;48.094;11.838;2022-12-07T13:04:16;9.32;;;3.42;;
70558;SDS011;58108;48.094;11.838;2022-12-07T13:06:50;4.55;;;1.83;;
70558;SDS011;58108;48.094;11.838;2022-12-07T13:09:23;9.33;;;3.60;;
70558;SDS011;58108;48.094;11.838;2022-12-07T13:11:59;9.52;;;3.78;;
70558;SDS011;58108;48.094;11.838;2022-12-07T13:19:58;8.00;;;3.17;;
70558;SDS011;58108;48.094;11.838;2022-12-07T13:27:58;5.05;;;2.13;;
70558;SDS011;58108;48.094;11.838;2022-12-07T13:30:28;5.55;;;2.03;;
70558;SDS011;58108;48.094;11.838;2022-12-07T13:32:56;7.45;;;2.75;;
70558;SDS011;58108;48.094;11.838;2022-12-07T13:35:27;8.80;;;3.80;;
70558;SDS011;58108;48.094;11.838;2022-12-07T13:37:53;9.95;;;3.70;;
70558;SDS011;58108;48.094;11.838;2022-12-07T13:40:20;9.00;;;4.03;;
70558;SDS011;58108;48.094;11.838;2022-12-07T13:42:47;9.63;;;3.67;;
70558;SDS011;58108;48.094;11.838;2022-12-07T13:48:10;6.85;;;2.75;;
70558;SDS011;58108;48.094;11.838;2022-12-07T13:50:41;6.40;;;2.58;;
70558;SDS011;58108;48.094;11.838;2022-12-07T13:53:07;7.20;;;2.50;;
70558;SDS011;58108;48.094;11.838;2022-12-07T13:55:38;9.60;;;4.10;;
70558;SDS011;58108;48.094;11.838;2022-12-07T13:58:10;10.48;;;4.43;;
70558;SDS011;58108;48.094;11.838;2022-12-07T14:00:35;10.23;;;4.03;;
70558;SDS011;58108;48.094;11.838;2022-12-07T14:03:03;10.77;;;4.03;;
70558;SDS011;58108;48.094;11.838;2022-12-07T14:06:02;10.40;;;4.30;;
70558;SDS011;58108;48.094;11.838;2022-12-07T14:09:08;7.93;;;3.13;;
70558;SDS011;58108;48.094;11.838;2022-12-07T14:11:41;7.18;;;2.38;;
70558;SDS011;58108;48.094;11.838;2022-12-07T14:14:10;9.37;;;3.73;;
70558;SDS011;58108;48.094;11.838;2022-12-07T14:16:40;7.70;;;3.03;;
70558;SDS011;58108;48.094;11.838;2022-12-07T14:27:55;10.57;;;4.20;;
70558;SDS011;58108;48.094;11.838;2022-12-07T14:30:24;5.87;;;2.30;;
70558;SDS011;58108;48.094;11.838;2022-12-07T14:32:57;11.95;;;4.40;;
70558;SDS011;58108;48.094;11.838;2022-12-07T14:35:26;10.38;;;4.10;;
70558;SDS011;58108;48.094;11.838;2022-12-07T14:37:52;11.55;;;4.40;;
70558;SDS011;58108;48.094;11.838;2022-12-07T14:40:19;12.18;;;4.85;;
70558;SDS011;58108;48.094;11.838;2022-12-07T14:42:47;8.48;;;3.25;;
70558;SDS011;58108;48.094;11.838;2022-12-07T14:45:16;8.23;;;3.40;;
70558;SDS011;58108;48.094;11.838;2022-12-07T14:47:43;8.77;;;3.28;;
70558;SDS011;58108;48.094;11.838;2022-12-07T14:50:13;10.82;;;4.72;;
70558;SDS011;58108;48.094;11.838;2022-12-07T14:52:40;6.68;;;2.58;;
70558;SDS011;58108;48.094;11.838;2022-12-07T14:55:12;5.60;;;1.77;;
70558;SDS011;58108;48.094;11.838;2022-12-07T14:57:41;9.07;;;3.80;;
70558;SDS011;58108;48.094;11.838;2022-12-07T15:00:06;6.27;;;2.10;;
70558;SDS011;58108;48.094;11.838;2022-12-07T15:02:33;10.98;;;4.28;;
70558;SDS011;58108;48.094;11.838;2022-12-07T15:04:58;11.53;;;4.43;;
70558;SDS011;58108;48.094;11.838;2022-12-07T15:07:23;11.60;;;4.23;;
70558;SDS011;58108;48.094;11.838;2022-12-07T15:09:50;11.07;;;4.30;;
70558;SDS011;58108;48.094;11.838;2022-12-07T15:12:15;12.90;;;5.13;;
70558;SDS011;58108;48.094;11.838;2022-12-07T15:14:40;11.60;;;4.23;;
70558;SDS011;58108;48.094;11.838;2022-12-07T15:17:06;11.37;;;4.67;;
70558;SDS011;58108;48.094;11.838;2022-12-07T15:19:31;11.23;;;4.50;;
70558;SDS011;58108;48.094;11.838;2022-12-07T15:21:57;13.50;;;4.78;;
70558;SDS011;58108;48.094;11.838;2022-12-07T15:24:23;12.17;;;4.60;;
70558;SDS011;58108;48.094;11.838;2022-12-07T15:26:49;12.80;;;4.65;;
70558;SDS011;58108;48.094;11.838;2022-12-07T15:29:14;11.67;;;4.93;;
70558;SDS011;58108;48.094;11.838;2022-12-07T15:31:40;12.40;;;4.70;;
70558;SDS011;58108;48.094;11.838;2022-12-07T15:34:06;12.37;;;4.90;;
70558;SDS011;58108;48.094;11.838;2022-12-07T15:36:32;12.40;;;4.80;;
70558;SDS011;58108;48.094;11.838;2022-12-07T15:38:58;11.98;;;4.18;;
70558;SDS011;58108;48.094;11.838;2022-12-07T15:41:24;11.93;;;4.77;;
70558;SDS011;58108;48.094;11.838;2022-12-07T15:43:50;12.23;;;4.90;;
70558;SDS011;58108;48.094;11.838;2022-12-07T15:46:37;11.90;;;4.80;;
70558;SDS011;58108;48.094;11.838;2022-12-07T15:49:12;12.88;;;5.47;;
70558;SDS011;58108;48.094;11.838;2022-12-07T15:51:40;13.40;;;5.22;;
70558;SDS011;58108;48.094;11.838;2022-12-07T15:54:06;15.70;;;5.47;;
70558;SDS011;58108;48.094;11.838;2022-12-07T15:56:31;12.20;;;3.93;;
70558;SDS011;58108;48.094;11.838;2022-12-07T15:58:57;14.17;;;5.20;;
70558;SDS011;58108;48.094;11.838;2022-12-07T16:01:22;15.53;;;5.33;;
70558;SDS011;58108;48.094;11.838;2022-12-07T16:03:48;12.82;;;5.15;;
70558;SDS011;58108;48.094;11.838;2022-12-07T16:06:16;16.05;;;5.68;;
70558;SDS011;58108;48.094;11.838;2022-12-07T16:08:43;13.43;;;5.47;;
70558;SDS011;58108;48.094;11.838;2022-12-07T16:11:09;14.13;;;6.03;;
70558;SDS011;58108;48.094;11.838;2022-12-07T16:13:35;15.77;;;6.05;;
70558;SDS011;58108;48.094;11.838;2022-12-07T16:16:07;12.83;;;5.03;;
70558;SDS011;58108;48.094;11.838;2022-12-07T16:18:35;18.23;;;6.10;;
70558;SDS011;58108;48.094;11.838;2022-12-07T16:21:00;15.27;;;6.13;;
70558;SDS011;58108;48.094;11.838;2022-12-07T16:23:26;15.90;;;6.23;;
70558;SDS011;58108;48.094;11.838;2022-12-07T16:25:51;15.32;;;5.65;;
70558;SDS011;58108;48.094;11.838;2022-12-07T16:28:17;12.50;;;4.80;;
70558;SDS011;58108;48.094;11.838;2022-12-07T16:30:42;13.03;;;4.77;;
70558;SDS011;58108;48.094;11.838;2022-12-07T16:33:07;9.27;;;3.33;;
70558;SDS011;58108;48.094;11.838;2022-12-07T16:35:33;10.93;;;3.90;;
70558;SDS011;58108;48.094;11.838;2022-12-07T16:37:58;12.63;;;4.10;;
70558;SDS011;58108;48.094;11.838;2022-12-07T16:40:23;10.77;;;3.60;;
70558;SDS011;58108;48.094;11.838;2022-12-07T16:42:48;11.70;;;4.20;;